Terminal Aerodrome Forecast
Issued by NWS Dodge City, KS

Home | Current Version | Previous Version | Graphics & Text | Print | Product List | Glossary Off
Versions: 1 2 3 4 5 6 7 8 9 10 11 12 13 14 15 16 17 18 19 20 21

000
FTUS43 KDDC 221440 AAB
TAFDDC
TAF AMD
KDDC 221440Z 2215/2312 08010KT P6SM OVC025
     FM222000 14011KT P6SM BKN035
     FM230400 15013KT 5SM BR OVC010
     FM230600 16013KT 2SM BR OVC003
     FM230900 17012G20KT 2SM BR OVC003 WS020/19050KT=

USA.gov is the U.S. government's official web portal to all federal, state and local government web resources and services.